Aviation Digital Data Service (ADDS)

Output produced by METARs form (1440 UTC 19 July 2019)
found at http://aviationweather.gov/metar/data/
 
METAR text: EDDW 191420Z 34008KT 280V030 CAVOK 24/09 Q1013 NOSIG
Conditions at: EDDW (BREMEN , DE) observed 1420 UTC 19 July 2019
Temperature: 24.0°C (75°F)
Dewpoint: 9.0°C (48°F) [RH = 38%]
Pressure (altimeter): 29.91 inches Hg (1013.0 mb)
Winds: from the NNW (340 degrees) at 9 MPH (8 knots; 4.1 m/s)
Visibility: 6 or more miles (10+ km)
Ceiling: ceiling and visibility are OK
Clouds: unknown
Weather: no significant weather observed at this time

METAR text: EDDW 191350Z 31009KT 270V350 CAVOK 25/09 Q1013 NOSIG
Conditions at: EDDW (BREMEN , DE) observed 1350 UTC 19 July 2019
Temperature: 25.0°C (77°F)
Dewpoint: 9.0°C (48°F) [RH = 36%]
Pressure (altimeter): 29.91 inches Hg (1013.0 mb)
Winds: from the NW (310 degrees) at 10 MPH (9 knots; 4.6 m/s)
Visibility: 6 or more miles (10+ km)
Ceiling: ceiling and visibility are OK
Clouds: unknown
Weather: no significant weather observed at this time

Forecast for: EDDW (BREMEN , DE)
Text: TAF EDDW 191100Z 1912/2012 29008KT CAVOK
Forecast period: 1200 to 1700 UTC 19 July 2019
Forecast type: FROM: standard forecast or significant change
Winds: from the WNW (290 degrees) at 9 MPH (8 knots; 4.1 m/s)
Visibility: 6 or more miles 10+ km)
Ceiling: unknown
Clouds: missing
Weather: NSW  (no significant weather)
Text: BECMG 1917/1919 10004KT
Forecast period: 1700 UTC 19 July 2019 to 0600 UTC 20 July 2019
Forecast type: BECOMING: Conditions expected to become as follows by 1900 UTC 19 July 2019
Winds: from the E (100 degrees) at 5 MPH (4 knots; 2.1 m/s)
Visibility: 6 or more miles 10+ km)
Ceiling: unknown
Clouds: missing
Weather: NSW  (no significant weather)
Text: BECMG 2006/2008 16008KT
Forecast period: 0600 to 0900 UTC 20 July 2019
Forecast type: BECOMING: Conditions expected to become as follows by 0800 UTC 20 July 2019
Winds: from the SSE (160 degrees) at 9 MPH (8 knots; 4.1 m/s)
Visibility: 6 or more miles 10+ km)
Ceiling: unknown
Clouds: missing
Weather: NSW  (no significant weather)
Text: BECMG 2009/2011 22011KT
Forecast period: 0900 to 1200 UTC 20 July 2019
Forecast type: BECOMING: Conditions expected to become as follows by 1100 UTC 20 July 2019
Winds: from the SW (220 degrees) at 13 MPH (11 knots; 5.7 m/s)
Visibility: 6 or more miles 10+ km)
Ceiling: unknown
Clouds: missing
Weather: NSW  (no significant weather)
Text: TEMPO 2011/2012 22015G25KT
Forecast period: 1100 to 1200 UTC 20 July 2019
Forecast type: TEMPORARY: The following changes expected for less than half the time period
Winds: from the SW (220 degrees) at 17 MPH (15 knots; 7.7 m/s)
gusting to 29 MPH (25 knots; 12.9 m/s)
Visibility: missing
Ceiling: unknown
Clouds: missing
Weather: no significant weather forecast for this period